Time;durP1;ratioP1;P1;durP2;ratioP2;P2;SDS_P1;SDS_P2;PMS_P1;PMS_P2;Temp;Humidity;BMP_temperature;BMP_pressure;BME280_temperature;BME280_humidity;BME280_pressure;Samples;Min_cycle;Max_cycle;Signal;HPM_P1;HPM_P2
2023/06/16 00:02:17;;;;;;;19.75;7.70;;;;;;;21.02;62.48;100068.55;123938;1102;104357;-81
2023/06/16 00:04:49;;;;;;;16.83;8.07;;;;;;;21.00;63.59;100065.90;123842;1100;104259;-79
2023/06/16 00:07:22;;;;;;;17.73;8.33;;;;;;;20.96;63.89;100064.17;123871;1102;104261;-79
2023/06/16 00:09:53;;;;;;;15.15;7.30;;;;;;;20.94;63.27;100065.08;123767;1102;118666;-79
2023/06/16 00:12:25;;;;;;;16.97;7.87;;;;;;;20.93;63.26;100058.00;123790;1102;104408;-80
2023/06/16 00:14:56;;;;;;;16.13;7.57;;;;;;;20.90;63.04;100058.92;123802;1102;104274;-81
2023/06/16 00:17:28;;;;;;;15.47;7.73;;;;;;;20.84;64.21;100067.00;123849;1102;104629;-80
2023/06/16 00:19:59;;;;;;;20.97;7.90;;;;;;;20.75;64.31;100057.33;123900;1102;104204;-81
2023/06/16 00:22:32;;;;;;;19.43;8.07;;;;;;;20.68;64.70;100050.33;123950;1102;104249;-80
2023/06/16 00:25:03;;;;;;;14.85;7.78;;;;;;;20.63;64.50;100061.02;123812;1099;104238;-81
2023/06/16 00:27:35;;;;;;;18.13;7.47;;;;;;;20.60;64.90;100060.15;123835;1102;104242;-80
2023/06/16 00:30:09;;;;;;;18.60;8.27;;;;;;;20.50;64.75;100059.39;123846;1100;104348;-81
2023/06/16 00:32:39;;;;;;;;;;;;;;;20.41;63.95;100049.75;124001;1102;104262;-80
2023/06/16 00:35:11;;;;;;;14.70;7.27;;;;;;;20.41;65.09;100049.75;123899;1102;104287;-81
2023/06/16 00:37:42;;;;;;;17.40;8.03;;;;;;;20.41;65.03;100047.08;124165;1102;104220;-81
2023/06/16 00:40:14;;;;;;;19.37;9.20;;;;;;;20.42;65.34;100050.62;123977;1102;104634;-81
2023/06/16 00:42:45;;;;;;;16.93;8.50;;;;;;;20.37;65.18;100044.47;123791;1102;104354;-81
2023/06/16 00:45:16;;;;;;;16.13;8.43;;;;;;;20.36;65.69;100056.02;123881;1099;104335;-79
2023/06/16 00:47:48;;;;;;;17.33;8.30;;;;;;;20.37;65.73;100049.80;123780;1102;104469;-80
2023/06/16 00:50:19;;;;;;;18.27;8.87;;;;;;;20.38;64.86;100049.78;123689;1102;104351;-79
2023/06/16 00:52:51;;;;;;;17.57;8.93;;;;;;;20.38;65.92;100047.12;123776;1102;104297;-79
2023/06/16 00:55:23;;;;;;;18.40;8.50;;;;;;;20.37;65.48;100041.80;123889;1102;104222;-81
2023/06/16 00:57:55;;;;;;;17.27;8.73;;;;;;;20.37;65.71;100044.47;123754;1102;104287;-81
2023/06/16 01:00:27;;;;;;;18.50;9.07;;;;;;;20.37;65.62;100033.81;123772;1102;104284;-81
2023/06/16 01:03:00;;;;;;;16.07;8.40;;;;;;;20.36;66.23;100046.23;123876;1099;104271;-82
2023/06/16 01:05:34;;;;;;;16.95;8.53;;;;;;;20.30;66.49;100046.30;123966;1102;104287;-81
2023/06/16 01:08:13;;;;;;;17.87;8.60;;;;;;;20.25;66.53;100041.02;124044;1100;104249;-81
2023/06/16 01:10:54;;;;;;;15.67;7.93;;;;;;;20.23;66.89;100044.63;123857;1102;104255;-81
2023/06/16 01:13:32;;;;;;;15.80;8.63;;;;;;;20.16;65.81;100038.46;123897;1102;104353;-81
2023/06/16 01:16:06;;;;;;;17.93;9.43;;;;;;;20.08;66.64;100041.20;123977;1100;104443;-81
2023/06/16 01:18:39;;;;;;;19.53;9.23;;;;;;;19.95;67.01;100039.59;123787;1102;104245;-81
2023/06/16 01:21:23;;;;;;;17.98;8.75;;;;;;;19.88;66.36;100041.44;123636;1098;104319;-81
2023/06/16 01:24:07;;;;;;;19.70;9.30;;;;;;;19.85;67.35;100037.90;123934;1100;104734;-81
2023/06/16 01:26:44;;;;;;;18.77;8.97;;;;;;;19.87;67.26;100041.45;123772;1102;104179;-81
2023/06/16 01:29:21;;;;;;;18.17;9.30;;;;;;;19.87;66.99;100041.45;123806;1102;104380;-82
2023/06/16 01:31:55;;;;;;;17.30;8.87;;;;;;;19.81;67.50;100039.72;123884;1102;104456;-82
2023/06/16 01:34:27;;;;;;;17.97;9.23;;;;;;;19.79;67.58;100040.63;123886;1102;104239;-84
2023/06/16 01:37:01;;;;;;;17.85;9.40;;;;;;;19.77;67.86;100045.09;123858;1102;104690;-82
2023/06/16 01:39:32;;;;;;;;;;;;;;;19.73;67.60;100042.42;123862;1102;104255;-81
2023/06/16 01:42:07;;;;;;;19.50;9.07;;;;;;;19.74;67.42;100044.20;123845;1102;104274;-82
2023/06/16 01:44:41;;;;;;;18.63;9.90;;;;;;;19.74;68.38;100041.53;123934;1102;104249;-82
2023/06/16 01:47:11;;;;;;;;;;;;;;;19.68;66.77;100046.91;123853;1101;104367;-82
2023/06/16 01:49:43;;;;;;;18.70;9.37;;;;;;;19.69;67.64;100043.33;123904;1102;104271;-81
2023/06/16 01:52:15;;;;;;;17.50;8.73;;;;;;;19.72;68.35;100043.30;124010;1102;104487;-82
2023/06/16 01:54:46;;;;;;;18.43;8.67;;;;;;;19.72;68.79;100045.97;124054;1102;104255;-81
2023/06/16 01:57:18;;;;;;;18.83;8.80;;;;;;;19.74;68.38;100044.20;124124;1102;104265;-81
2023/06/16 01:59:58;;;;;;;23.60;9.43;;;;;;;19.77;68.85;100045.09;123888;1102;104370;-81
2023/06/16 02:02:32;;;;;;;19.03;8.80;;;;;;;19.75;68.69;100043.28;123808;1102;104315;-81
2023/06/16 02:05:06;;;;;;;18.10;8.50;;;;;;;19.77;69.32;100050.41;124124;1099;104217;-81
2023/06/16 02:07:42;;;;;;;17.20;8.70;;;;;;;19.75;68.85;100043.28;123809;1102;104224;-82
2023/06/16 02:10:15;;;;;;;17.43;8.47;;;;;;;19.77;68.68;100042.42;124037;1102;105739;-80
2023/06/16 02:12:47;;;;;;;18.57;8.63;;;;;;;19.78;69.05;100036.22;123939;1102;111807;-81
2023/06/16 02:15:21;;;;;;;17.20;8.67;;;;;;;19.79;69.13;100032.63;123879;1102;104303;-81
2023/06/16 02:17:52;;;;;;;;;;;;;;;19.76;69.22;100041.52;123936;1102;104258;-81
2023/06/16 02:20:23;;;;;;;20.30;8.87;;;;;;;19.75;69.19;100042.41;123829;1102;104428;-80
2023/06/16 02:22:55;;;;;;;15.73;9.07;;;;;;;19.73;69.26;100036.22;123822;1102;104255;-80
2023/06/16 02:25:27;;;;;;;19.33;9.90;;;;;;;19.72;69.43;100037.98;124010;1100;104229;-82
2023/06/16 02:27:59;;;;;;;21.60;9.50;;;;;;;19.73;69.70;100042.42;123800;1102;104223;-81
2023/06/16 02:30:30;;;;;;;23.90;9.17;;;;;;;19.71;69.50;100046.89;123748;1102;104304;-81
2023/06/16 02:33:01;;;;;;;22.60;9.60;;;;;;;19.71;70.15;100041.56;123754;1102;108194;-81
2023/06/16 02:35:32;;;;;;;16.30;9.20;;;;;;;19.67;70.15;100046.92;124087;1102;104202;-80
2023/06/16 02:38:05;;;;;;;17.20;9.17;;;;;;;19.64;69.81;100039.84;124000;1102;104700;-81
2023/06/16 02:40:37;;;;;;;18.13;9.07;;;;;;;19.59;69.38;100033.69;123787;1102;104254;-81
2023/06/16 02:43:08;;;;;;;19.97;8.57;;;;;;;19.54;70.19;100035.48;123858;1099;104176;-82
2023/06/16 02:45:40;;;;;;;14.63;8.67;;;;;;;19.50;70.41;100031.97;123760;1102;104261;-82
2023/06/16 02:48:11;;;;;;;17.80;9.05;;;;;;;19.47;70.48;100036.45;123801;1103;104248;-82
2023/06/16 02:50:43;;;;;;;14.57;8.70;;;;;;;19.44;70.70;100037.34;123886;1099;104268;-82
2023/06/16 02:53:15;;;;;;;16.07;8.73;;;;;;;19.41;70.56;100042.69;123815;1102;104245;-82
2023/06/16 02:55:47;;;;;;;20.30;9.97;;;;;;;19.39;70.41;100044.48;123886;1102;104385;-82
2023/06/16 02:58:19;;;;;;;21.73;10.27;;;;;;;19.39;70.51;100044.48;124028;1102;104389;-81
2023/06/16 03:00:50;;;;;;;20.93;10.43;;;;;;;19.45;70.59;100048.89;123868;1099;104271;-82
2023/06/16 03:03:47;;;;;;;21.30;10.97;;;;;;;19.51;71.09;100043.48;124165;1101;111598;-80
2023/06/16 03:06:34;;;;;;;21.03;10.67;;;;;;;19.57;71.38;100047.00;123989;1102;104283;-81
2023/06/16 03:09:06;;;;;;;19.10;10.13;;;;;;;19.63;71.27;100050.50;123962;1102;104382;-81
2023/06/16 03:11:39;;;;;;;21.03;10.13;;;;;;;19.66;70.84;100043.36;124231;1102;104319;-80
2023/06/16 03:14:10;;;;;;;21.37;10.03;;;;;;;19.72;71.33;100048.62;123955;1102;104593;-81
2023/06/16 03:16:42;;;;;;;18.20;9.20;;;;;;;19.79;70.68;100048.61;123794;1102;104329;-80
2023/06/16 03:19:13;;;;;;;18.90;9.37;;;;;;;19.82;71.03;100046.82;123990;1102;104233;-80
2023/06/16 03:21:45;;;;;;;19.27;9.00;;;;;;;19.85;71.41;100044.13;124016;1102;104329;-80
2023/06/16 03:24:17;;;;;;;18.55;9.25;;;;;;;19.87;71.33;100047.65;123841;1102;108004;-80
2023/06/16 03:26:49;;;;;;;18.87;9.17;;;;;;;19.90;71.26;100044.09;124002;1102;104277;-81
2023/06/16 03:29:30;;;;;;;20.03;9.47;;;;;;;19.88;71.72;100041.44;123698;1102;104341;-80
2023/06/16 03:32:02;;;;;;;17.93;9.67;;;;;;;19.84;71.99;100042.36;123874;1102;104308;-80
2023/06/16 03:34:34;;;;;;;21.23;9.97;;;;;;;19.83;72.09;100045.03;123835;1102;118360;-80
2023/06/16 03:37:05;;;;;;;19.03;9.60;;;;;;;19.85;71.33;100044.13;123799;1099;104424;-82
2023/06/16 03:39:41;;;;;;;23.13;9.47;;;;;;;19.87;71.67;100041.45;123881;1102;104271;-80
2023/06/16 03:42:12;;;;;;;18.80;9.43;;;;;;;19.87;71.96;100044.98;123879;1102;104306;-81
2023/06/16 03:44:44;;;;;;;18.10;9.20;;;;;;;19.88;71.36;100038.77;123844;1102;104285;-80
2023/06/16 03:47:16;;;;;;;19.37;9.93;;;;;;;19.91;71.87;100037.84;123848;1102;104618;-78
2023/06/16 03:49:48;;;;;;;19.82;9.53;;;;;;;19.93;71.33;100041.39;123607;1102;104264;-77
2023/06/16 03:52:20;;;;;;;19.33;10.00;;;;;;;19.97;72.53;100036.91;123368;1102;104557;-77
2023/06/16 03:54:51;;;;;;;19.63;10.03;;;;;;;20.01;71.46;100044.85;123400;1102;104265;-77
2023/06/16 03:57:22;;;;;;;24.50;10.47;;;;;;;20.06;72.34;100048.34;123401;1102;104309;-77
2023/06/16 04:00:16;;;;;;;20.77;10.13;;;;;;;20.09;71.50;100042.11;123493;1102;104334;-78
2023/06/16 04:02:53;;;;;;;20.43;10.30;;;;;;;20.11;72.07;100043.84;123388;1102;104371;-77
2023/06/16 04:05:29;;;;;;;24.33;10.53;;;;;;;20.14;71.63;100040.27;123492;1102;104265;-80
2023/06/16 04:08:03;;;;;;;19.23;10.43;;;;;;;20.16;71.73;100043.78;123491;1099;104349;-78
2023/06/16 04:10:34;;;;;;;21.53;9.87;;;;;;;20.20;72.73;100040.20;123522;1102;104316;-77
2023/06/16 04:13:05;;;;;;;23.33;10.20;;;;;;;20.27;72.73;100038.34;123315;1102;104300;-77
2023/06/16 04:15:39;;;;;;;23.45;9.65;;;;;;;20.34;72.24;100031.19;124025;1102;104271;-81
2023/06/16 04:18:10;;;;;;;23.43;10.93;;;;;;;20.41;71.86;100033.76;124063;1102;104224;-79
2023/06/16 04:20:41;;;;;;;20.73;9.67;;;;;;;20.47;72.09;100031.02;123914;1102;104434;-79
2023/06/16 04:23:13;;;;;;;20.70;9.40;;;;;;;20.56;71.86;100023.80;124039;1102;104404;-79
2023/06/16 04:25:45;;;;;;;21.40;9.70;;;;;;;20.67;72.92;100027.23;123999;1102;118832;-78
2023/06/16 04:28:18;;;;;;;20.23;9.70;;;;;;;20.81;72.16;100027.05;123956;1102;104415;-78
2023/06/16 04:30:56;;;;;;;20.30;9.40;;;;;;;20.91;72.48;100023.36;124008;1102;104223;-78
2023/06/16 04:33:27;;;;;;;17.80;8.93;;;;;;;20.98;71.82;100024.14;124007;1102;104360;-79
2023/06/16 04:35:59;;;;;;;19.70;9.57;;;;;;;21.02;71.97;100023.20;123978;1099;104274;-77
2023/06/16 04:38:31;;;;;;;19.37;10.07;;;;;;;21.08;71.38;100017.75;124235;1100;104331;-79
2023/06/16 04:41:03;;;;;;;17.90;9.30;;;;;;;21.13;72.19;100023.91;123947;1101;104204;-79
2023/06/16 04:43:35;;;;;;;19.77;9.33;;;;;;;21.17;72.01;100025.61;123785;1102;104380;-78
2023/06/16 04:46:06;;;;;;;21.23;9.33;;;;;;;21.23;71.88;100024.64;123772;1102;104287;-78
2023/06/16 04:48:38;;;;;;;18.27;9.60;;;;;;;21.31;72.21;100024.52;124272;1102;104267;-80
2023/06/16 04:51:10;;;;;;;23.20;10.10;;;;;;;21.39;71.20;100027.94;124119;1102;104306;-80
2023/06/16 04:53:43;;;;;;;18.97;9.50;;;;;;;21.48;71.50;100030.46;123923;1100;104402;-80
2023/06/16 04:56:15;;;;;;;24.50;10.53;;;;;;;21.60;71.96;100033.85;124232;1100;104342;-78
2023/06/16 04:58:47;;;;;;;19.87;10.20;;;;;;;21.70;71.49;100030.13;124761;1099;104230;-79
2023/06/16 05:01:18;;;;;;;21.00;8.90;;;;;;;21.79;71.74;100024.63;124547;1099;104191;-82
2023/06/16 05:03:50;;;;;;;17.27;9.17;;;;;;;21.85;71.07;100023.65;124398;1102;104287;-79
2023/06/16 05:06:22;;;;;;;25.97;8.93;;;;;;;21.96;70.85;100028.80;124299;1102;104229;-81
2023/06/16 05:08:53;;;;;;;20.07;8.63;;;;;;;22.07;71.21;100032.13;124230;1102;104258;-77
2023/06/16 05:11:27;;;;;;;16.70;8.10;;;;;;;22.16;70.59;100029.29;124405;1103;104315;-78
2023/06/16 05:13:59;;;;;;;18.67;8.53;;;;;;;22.26;70.45;100040.66;124456;1102;104319;-79
2023/06/16 05:16:30;;;;;;;18.10;8.37;;;;;;;22.34;70.85;100040.55;124490;1102;104176;-78
2023/06/16 05:19:02;;;;;;;17.73;8.10;;;;;;;22.38;70.47;100039.59;124270;1102;104428;-78
2023/06/16 05:21:35;;;;;;;16.97;8.50;;;;;;;22.44;70.48;100042.14;124211;1102;104555;-77
2023/06/16 05:24:07;;;;;;;18.33;8.33;;;;;;;22.52;70.33;100045.52;124146;1102;102538;-77
2023/06/16 05:26:41;;;;;;;14.43;7.80;;;;;;;22.56;70.17;100038.31;124244;1102;104245;-76
2023/06/16 05:29:13;;;;;;;18.27;8.30;;;;;;;22.64;70.26;100038.15;124448;1102;103527;-79
2023/06/16 05:31:46;;;;;;;20.23;7.93;;;;;;;22.73;70.19;100048.65;124513;1102;104163;-80
2023/06/16 05:34:17;;;;;;;15.83;7.80;;;;;;;22.82;69.67;100044.91;124366;1102;104262;-79
2023/06/16 05:36:49;;;;;;;19.57;7.77;;;;;;;22.89;69.47;100050.09;124532;1100;104245;-83
2023/06/16 05:39:21;;;;;;;18.17;8.63;;;;;;;22.98;69.26;100044.53;124777;1100;104207;-83
2023/06/16 05:41:53;;;;;;;17.97;7.23;;;;;;;23.08;69.48;100044.33;124780;1102;104304;-84
2023/06/16 05:44:24;;;;;;;14.80;7.33;;;;;;;23.16;69.08;100042.38;124634;1102;103329;-83
2023/06/16 05:46:58;;;;;;;16.07;7.10;;;;;;;23.22;69.23;100038.66;124974;1099;104201;-80
2023/06/16 05:49:30;;;;;;;13.43;7.57;;;;;;;23.29;68.84;100033.12;124818;1102;104153;-80
2023/06/16 05:52:05;;;;;;;16.80;7.40;;;;;;;23.36;68.43;100031.20;124756;1099;102336;-82
2023/06/16 05:54:45;;;;;;;17.80;7.57;;;;;;;23.41;68.35;100034.63;124902;1102;104328;-79
2023/06/16 05:57:22;;;;;;;14.80;6.77;;;;;;;23.50;68.23;100029.05;124870;1102;104389;-78
2023/06/16 05:59:55;;;;;;;16.30;7.60;;;;;;;23.58;68.06;100031.53;124624;1102;104389;-82
2023/06/16 06:02:26;;;;;;;16.00;7.30;;;;;;;23.67;67.79;100038.47;124780;1102;104281;-82
2023/06/16 06:05:04;;;;;;;21.57;7.60;;;;;;;23.77;67.94;100034.61;124597;1102;104299;-81
2023/06/16 06:07:43;;;;;;;19.57;7.23;;;;;;;23.85;67.74;100039.80;126077;1102;102299;-81
2023/06/16 06:10:17;;;;;;;17.97;7.10;;;;;;;23.92;67.35;100041.41;126048;1101;101846;-84
2023/06/16 06:12:49;;;;;;;18.23;7.43;;;;;;;23.99;66.81;100031.39;126056;1102;102783;-82
2023/06/16 06:15:24;;;;;;;16.93;7.43;;;;;;;24.02;66.59;100031.31;125346;1101;104358;-80
2023/06/16 06:18:00;;;;;;;14.47;6.67;;;;;;;24.07;66.70;100036.55;124536;1103;103295;-78
2023/06/16 06:20:35;;;;;;;16.43;7.40;;;;;;;24.13;66.13;100034.56;124715;1102;103204;-82
2023/06/16 06:23:16;;;;;;;17.23;6.80;;;;;;;24.24;65.91;100034.27;125629;1102;104233;-79
2023/06/16 06:25:59;;;;;;;17.97;7.30;;;;;;;24.35;65.51;100034.84;124691;1102;102687;-80
2023/06/16 06:28:30;;;;;;;13.57;7.20;;;;;;;24.41;65.45;100031.98;124505;1102;104290;-77
2023/06/16 06:31:03;;;;;;;14.20;7.03;;;;;;;24.47;65.58;100038.98;124888;1100;102880;-79
2023/06/16 06:33:35;;;;;;;13.90;6.20;;;;;;;24.51;65.02;100029.03;125116;1102;103222;-81
2023/06/16 06:36:08;;;;;;;16.77;6.43;;;;;;;24.59;64.55;100037.78;125040;1102;104108;-80
2023/06/16 06:38:44;;;;;;;14.10;5.95;;;;;;;24.65;64.16;100026.87;125087;1102;103342;-81
2023/06/16 06:41:16;;;;;;;17.17;6.43;;;;;;;24.75;64.03;100025.66;124723;1102;104104;-80
2023/06/16 06:43:49;;;;;;;16.42;6.72;;;;;;;24.83;62.72;100024.55;124854;1101;104203;-81
2023/06/16 06:46:22;;;;;;;16.57;6.43;;;;;;;24.91;62.96;100018.00;124660;1102;104320;-83
2023/06/16 06:48:53;;;;;;;14.17;6.30;;;;;;;25.02;62.71;100012.30;124655;1102;104230;-79
2023/06/16 06:51:27;;;;;;;15.47;5.73;;;;;;;25.11;61.98;100017.38;124736;1102;102761;-81
2023/06/16 06:53:58;;;;;;;13.00;6.00;;;;;;;25.26;61.97;100020.52;125485;1099;102198;-78
2023/06/16 06:56:30;;;;;;;17.20;6.13;;;;;;;25.38;61.76;100020.12;124654;1100;104201;-80
2023/06/16 06:59:03;;;;;;;15.55;5.70;;;;;;;25.49;61.32;100019.76;124840;1099;103954;-81
2023/06/16 07:01:35;;;;;;;16.93;5.80;;;;;;;25.61;60.92;100016.66;126318;1101;101705;-77
2023/06/16 07:04:10;;;;;;;13.37;5.53;;;;;;;25.76;61.24;100017.95;126363;1102;102043;-77
2023/06/16 07:06:43;;;;;;;;;;;;;;;25.94;60.69;100011.03;126425;1100;101788;-74
2023/06/16 07:09:15;;;;;;;10.03;6.00;;;;;;;26.13;60.51;100013.09;126216;1099;101824;-79
2023/06/16 07:11:51;;;;;;;14.17;5.93;;;;;;;26.30;60.08;100012.48;126190;1101;102904;-80
2023/06/16 07:14:24;;;;;;;13.70;6.00;;;;;;;26.50;60.29;100000.97;126025;1099;102198;-81
2023/06/16 07:16:58;;;;;;;16.50;6.45;;;;;;;26.64;59.41;100006.69;126119;1102;102691;-79
2023/06/16 07:19:44;;;;;;;14.53;6.20;;;;;;;26.80;58.63;100007.03;126105;1102;102897;-79
2023/06/16 07:22:17;;;;;;;15.15;6.10;;;;;;;26.96;58.66;100006.39;124613;1098;104372;-77
2023/06/16 07:24:48;;;;;;;15.73;6.03;;;;;;;27.07;58.27;99999.64;124637;1100;103250;-78
2023/06/16 07:27:21;;;;;;;14.70;6.20;;;;;;;27.28;58.09;99999.70;124565;1102;104236;-79
2023/06/16 07:29:52;;;;;;;13.95;5.70;;;;;;;27.48;56.92;100003.42;124852;1102;104258;-81
2023/06/16 07:32:33;;;;;;;16.07;5.93;;;;;;;27.60;56.73;100006.45;124664;1101;104229;-81
2023/06/16 07:35:06;;;;;;;14.67;5.37;;;;;;;27.76;56.50;100005.80;124890;1102;102313;-78
2023/06/16 07:37:40;;;;;;;12.93;5.57;;;;;;;28.01;55.95;100004.77;124555;1102;104252;-76
2023/06/16 07:40:14;;;;;;;9.17;5.33;;;;;;;28.09;55.43;100013.37;124533;1102;104306;-77
2023/06/16 07:42:45;;;;;;;12.63;5.37;;;;;;;28.19;55.69;100006.64;124309;1102;105486;-78
2023/06/16 07:45:17;;;;;;;12.53;5.20;;;;;;;28.33;55.05;100012.27;124443;1102;104245;-80
2023/06/16 07:47:49;;;;;;;15.70;6.00;;;;;;;28.32;54.37;100007.81;124454;1102;104274;-80
2023/06/16 07:50:22;;;;;;;12.15;5.53;;;;;;;28.57;53.55;100001.28;124489;1099;104236;-77
2023/06/16 07:52:53;;;;;;;14.50;5.43;;;;;;;28.71;52.88;99999.80;124425;1102;102540;-77
2023/06/16 07:55:25;;;;;;;12.90;5.10;;;;;;;28.83;52.80;100007.31;124394;1102;104201;-83
2023/06/16 07:57:57;;;;;;;12.40;5.30;;;;;;;29.11;52.99;100003.24;124676;1102;103296;-77
2023/06/16 08:00:29;;;;;;;10.80;5.30;;;;;;;29.37;52.38;100005.58;124613;1102;102271;-78
2023/06/16 08:03:01;;;;;;;13.33;5.80;;;;;;;29.57;51.55;100011.78;124777;1101;104223;-78
2023/06/16 08:05:32;;;;;;;13.67;4.87;;;;;;;29.68;51.12;100005.83;124472;1100;104194;-75
2023/06/16 08:08:07;;;;;;;11.57;5.30;;;;;;;29.61;50.59;100005.28;124609;1102;102556;-78
2023/06/16 08:10:40;;;;;;;15.23;5.10;;;;;;;29.56;50.52;100007.31;124599;1102;104229;-80
2023/06/16 08:13:14;;;;;;;13.30;5.30;;;;;;;29.56;49.70;100001.91;124659;1102;102457;-77
2023/06/16 08:15:46;;;;;;;14.90;5.03;;;;;;;29.63;49.39;99997.09;124332;1102;103949;-78
2023/06/16 08:18:18;;;;;;;12.80;5.40;;;;;;;29.70;49.11;99993.98;124335;1102;104245;-78
2023/06/16 08:20:50;;;;;;;11.13;5.27;;;;;;;29.75;48.81;99997.31;124558;1099;104047;-78
2023/06/16 08:23:32;;;;;;;12.07;4.97;;;;;;;29.80;49.11;99990.84;124389;1102;104351;-80
2023/06/16 08:26:07;;;;;;;10.60;4.87;;;;;;;29.96;47.76;99999.88;124805;1102;104274;-81
2023/06/16 08:28:42;;;;;;;13.68;4.97;;;;;;;30.08;47.54;99998.36;124764;1102;104362;-81
2023/06/16 08:31:15;;;;;;;12.53;5.00;;;;;;;30.25;47.62;99989.34;124770;1102;104354;-81
2023/06/16 08:33:54;;;;;;;9.73;4.67;;;;;;;30.39;46.34;99999.45;124374;1102;102336;-79
2023/06/16 08:36:32;;;;;;;11.57;4.90;;;;;;;30.59;46.66;99993.80;124634;1102;104185;-79
2023/06/16 08:39:09;;;;;;;14.73;5.60;;;;;;;30.64;46.93;99988.99;124575;1099;104195;-80
2023/06/16 08:41:42;;;;;;;14.10;5.03;;;;;;;30.69;46.02;99988.73;124419;1102;105685;-81
2023/06/16 08:44:19;;;;;;;11.73;4.67;;;;;;;30.81;46.08;99985.33;124931;1102;104178;-79
2023/06/16 08:46:52;;;;;;;11.97;4.90;;;;;;;30.85;46.40;99988.73;126195;1099;102656;-79
2023/06/16 08:49:26;;;;;;;13.53;4.77;;;;;;;30.99;45.65;99977.14;126280;1099;104276;-80
2023/06/16 08:52:03;;;;;;;12.47;5.07;;;;;;;31.14;44.73;99986.23;124495;1099;104226;-81
2023/06/16 08:54:46;;;;;;;12.23;5.13;;;;;;;31.07;44.22;99972.17;124662;1102;104285;-77
2023/06/16 08:57:22;;;;;;;17.03;4.83;;;;;;;30.97;44.10;99971.81;124627;1102;104176;-80
2023/06/16 08:59:57;;;;;;;12.10;5.20;;;;;;;30.91;43.82;99969.42;124653;1102;104229;-81
2023/06/16 09:02:33;;;;;;;12.00;5.10;;;;;;;30.89;43.95;99967.78;124326;1102;111290;-75
2023/06/16 09:05:07;;;;;;;9.77;4.57;;;;;;;30.81;43.50;99970.93;124503;1099;102861;-77
2023/06/16 09:07:39;;;;;;;10.77;4.53;;;;;;;30.65;43.21;99971.80;124573;1102;103077;-75
2023/06/16 09:10:19;;;;;;;12.47;4.70;;;;;;;30.76;42.72;99967.59;124651;1102;103112;-76
2023/06/16 09:12:59;;;;;;;13.73;5.30;;;;;;;30.73;42.74;99967.77;124532;1102;102330;-77
2023/06/16 09:15:35;;;;;;;12.23;4.57;;;;;;;30.70;42.42;99967.94;124572;1102;103350;-79
2023/06/16 09:18:09;;;;;;;9.03;4.53;;;;;;;30.72;42.25;99956.06;124520;1102;104224;-79
2023/06/16 09:20:51;;;;;;;11.00;4.53;;;;;;;30.79;42.22;99952.06;124551;1102;104169;-77
2023/06/16 09:23:31;;;;;;;9.00;4.43;;;;;;;30.92;41.85;99956.77;124363;1099;104176;-77
2023/06/16 09:26:09;;;;;;;17.17;4.73;;;;;;;31.03;41.66;99953.48;124641;1102;104194;-77
2023/06/16 09:28:45;;;;;;;12.90;4.80;;;;;;;31.04;41.20;99953.39;124567;1099;104222;-81
2023/06/16 09:31:23;;;;;;;10.97;4.40;;;;;;;30.85;40.81;99952.66;124623;1102;103208;-77
2023/06/16 09:34:04;;;;;;;11.77;5.00;;;;;;;30.62;40.48;99949.41;124639;1102;102734;-79
2023/06/16 09:36:46;;;;;;;11.53;4.80;;;;;;;30.44;41.06;99946.79;124686;1102;104227;-79
2023/06/16 09:39:26;;;;;;;11.10;4.80;;;;;;;30.60;41.02;99940.52;124790;1103;104316;-83
2023/06/16 09:42:04;;;;;;;11.70;4.80;;;;;;;30.78;40.79;99936.77;124755;1102;104198;-81
2023/06/16 09:44:37;;;;;;;17.23;4.90;;;;;;;30.80;40.63;99940.24;124879;1102;104248;-80
2023/06/16 09:47:22;;;;;;;10.90;4.60;;;;;;;30.81;40.48;99939.30;124816;1102;104251;-81
2023/06/16 09:50:12;;;;;;;11.85;4.90;;;;;;;30.97;40.65;99935.73;124855;1099;102763;-79
2023/06/16 09:52:44;;;;;;;12.80;4.90;;;;;;;31.26;40.26;99934.02;124887;1102;102315;-81
2023/06/16 09:55:26;;;;;;;13.40;5.00;;;;;;;31.45;40.01;99939.20;124862;1101;102601;-79
2023/06/16 09:57:57;;;;;;;11.00;4.93;;;;;;;31.57;39.65;99931.32;124840;1102;102346;-81
2023/06/16 10:00:37;;;;;;;13.00;5.20;;;;;;;31.54;38.94;99926.98;125638;1102;102923;-84
2023/06/16 10:03:19;;;;;;;10.80;4.90;;;;;;;31.41;39.27;99915.95;125587;1102;102918;-80
2023/06/16 10:05:55;;;;;;;10.77;4.80;;;;;;;31.35;38.92;99917.21;125165;1102;102516;-83
2023/06/16 10:08:31;;;;;;;11.93;4.67;;;;;;;31.47;38.74;99918.29;125045;1101;102395;-85
2023/06/16 10:11:03;;;;;;;12.33;5.23;;;;;;;31.57;38.60;99918.66;126038;1100;102676;-79
2023/06/16 10:13:36;;;;;;;13.50;5.10;;;;;;;31.58;38.46;99919.52;125918;1102;102735;-81
2023/06/16 10:16:13;;;;;;;11.77;4.87;;;;;;;31.31;38.27;99915.64;126008;1100;102203;-76
2023/06/16 10:18:46;;;;;;;11.03;4.63;;;;;;;31.16;38.57;99914.70;126093;1102;102576;-78
2023/06/16 10:21:19;;;;;;;11.45;5.30;;;;;;;30.95;38.25;99908.70;125852;1102;104163;-75
2023/06/16 10:23:53;;;;;;;13.75;4.95;;;;;;;30.77;38.21;99901.64;124842;1099;103229;-79
2023/06/16 10:26:29;;;;;;;10.50;4.37;;;;;;;30.66;38.22;99896.84;124839;1102;104137;-80
2023/06/16 10:29:02;;;;;;;12.07;5.00;;;;;;;30.63;38.50;99897.89;124801;1101;103625;-79
2023/06/16 10:31:33;;;;;;;15.13;5.03;;;;;;;30.56;38.14;99892.91;124890;1101;104229;-82
2023/06/16 10:34:06;;;;;;;11.83;4.90;;;;;;;30.56;38.35;99896.52;124763;1102;102463;-79
2023/06/16 10:36:39;;;;;;;12.03;4.85;;;;;;;30.65;38.43;99890.57;124777;1102;102157;-80
2023/06/16 10:39:12;;;;;;;11.88;5.08;;;;;;;30.91;37.98;99893.58;124948;1102;104235;-80
2023/06/16 10:42:00;;;;;;;12.10;5.03;;;;;;;31.14;37.98;99894.97;125078;1102;104309;-82
2023/06/16 10:44:34;;;;;;;13.73;4.70;;;;;;;31.39;38.00;99884.50;124945;1099;102768;-80
2023/06/16 10:47:41;;;;;;;9.08;4.87;;;;;;;31.57;37.40;99887.94;124668;1102;104169;-79
2023/06/16 10:50:13;;;;;;;9.60;4.47;;;;;;;31.42;37.03;99884.31;124680;1102;104300;-81
2023/06/16 10:52:56;;;;;;;11.70;5.20;;;;;;;31.41;36.88;99888.84;124765;1099;104279;-79
2023/06/16 10:55:33;;;;;;;10.03;4.90;;;;;;;31.40;36.60;99886.22;124771;1102;104364;-80
2023/06/16 10:58:27;;;;;;;11.23;5.00;;;;;;;31.32;36.72;99878.55;124842;1102;104229;-79
2023/06/16 11:01:24;;;;;;;10.83;5.70;;;;;;;31.17;36.80;99883.09;124854;1100;102370;-77
2023/06/16 11:04:05;;;;;;;8.10;4.80;;;;;;;30.96;36.62;99880.66;124558;1102;103321;-80
2023/06/16 11:07:19;;;;;;;7.13;4.80;;;;;;;30.76;36.62;99875.52;124622;1102;104216;-82
2023/06/16 11:10:05;;;;;;;10.67;5.00;;;;;;;30.70;36.65;99865.05;124651;1102;102485;-78
2023/06/16 11:12:44;;;;;;;13.43;5.20;;;;;;;30.85;36.41;99858.73;126232;1099;101389;-78
2023/06/16 11:15:16;;;;;;;12.10;4.73;;;;;;;31.14;36.73;99862.45;126171;1100;111903;-80
2023/06/16 11:17:47;;;;;;;;;;;;;;;31.29;35.85;99857.06;125723;1102;104249;-82
2023/06/16 11:20:22;;;;;;;10.20;4.60;;;;;;;31.38;36.24;99853.79;124391;1102;104322;-82
2023/06/16 11:22:54;;;;;;;9.17;4.70;;;;;;;31.44;35.96;99850.70;124696;1102;104434;-79
2023/06/16 11:25:25;;;;;;;;;;;;;;;31.62;35.42;99847.84;124589;1099;104213;-76
2023/06/16 11:28:00;;;;;;;8.98;4.83;;;;;;;31.73;35.79;99839.93;124586;1099;104671;-80
2023/06/16 11:30:32;;;;;;;9.37;4.53;;;;;;;31.73;35.67;99839.93;124810;1102;104217;-81
2023/06/16 11:33:07;;;;;;;11.20;4.55;;;;;;;31.86;35.83;99840.02;124938;1101;104223;-78
2023/06/16 11:35:40;;;;;;;10.33;4.67;;;;;;;31.77;35.75;99841.46;124656;1102;103211;-76
2023/06/16 11:38:14;;;;;;;13.08;4.97;;;;;;;31.69;35.71;99843.80;124405;1100;104175;-79